createdAt,value
2018-05-15T00:01:31.977Z,99287.36
2018-05-15T00:07:37.100Z,99286.05
2018-05-15T00:13:41.476Z,99304.59
2018-05-15T00:19:46.016Z,99300.30
2018-05-15T00:25:51.220Z,99299.98
2018-05-15T00:31:56.342Z,99304.45
2018-05-15T00:38:00.685Z,99310.67
2018-05-15T00:44:05.810Z,99315.16
2018-05-15T00:50:10.173Z,99306.00
2018-05-15T00:56:14.550Z,99308.08
2018-05-15T01:02:19.530Z,99311.59
2018-05-15T01:08:24.302Z,99299.11
2018-05-15T01:14:29.425Z,99296.58
2018-05-15T01:20:33.793Z,99291.53
2018-05-15T01:26:38.123Z,99294.30
2018-05-15T01:32:42.520Z,99300.83
2018-05-15T01:38:46.874Z,99301.55
2018-05-15T01:44:51.527Z,99317.06
2018-05-15T01:50:56.771Z,99316.05
2018-05-15T01:57:01.130Z,99309.85
2018-05-15T02:03:06.257Z,99298.09
2018-05-15T02:09:10.600Z,99310.06
2018-05-15T02:15:15.056Z,99302.35
2018-05-15T02:21:19.549Z,99304.39
2018-05-15T02:27:23.929Z,99299.73
2018-05-15T02:33:29.049Z,99304.15
2018-05-15T02:39:33.395Z,99307.23
2018-05-15T02:45:38.503Z,99307.22
2018-05-15T02:51:42.863Z,99302.23
2018-05-15T02:57:48.399Z,99307.52
2018-05-15T03:03:53.373Z,99307.40
2018-05-15T03:09:57.745Z,99307.23
2018-05-15T03:16:02.097Z,99308.96
2018-05-15T03:22:06.480Z,99311.07
2018-05-15T03:28:11.604Z,99323.71
2018-05-15T03:34:15.965Z,99333.57
2018-05-15T03:40:20.723Z,99337.83
2018-05-15T03:46:25.140Z,99336.53
2018-05-15T03:52:29.500Z,99337.87
2018-05-15T03:58:33.848Z,99336.91
2018-05-15T04:04:56.831Z,99336.66
2018-05-15T04:11:01.299Z,99343.00
2018-05-15T04:17:06.539Z,99344.80
2018-05-15T04:23:11.636Z,99344.99
2018-05-15T04:29:16.743Z,99350.28
2018-05-15T04:35:22.317Z,99349.95
2018-05-15T04:41:26.637Z,99356.88
2018-05-15T04:47:31.165Z,99363.64
2018-05-15T04:53:35.521Z,99366.34
2018-05-15T04:59:40.033Z,99364.67
2018-05-15T05:05:45.187Z,99371.42
2018-05-15T05:11:50.818Z,99372.20
2018-05-15T05:17:55.237Z,99377.20
2018-05-15T05:23:59.592Z,99390.25
2018-05-15T05:30:03.949Z,99391.95
2018-05-15T05:36:09.287Z,99395.89
2018-05-15T05:42:13.700Z,99402.80
2018-05-15T05:48:18.120Z,99394.41
2018-05-15T05:54:23.628Z,99402.72
2018-05-15T06:00:28.164Z,99398.30
2018-05-15T06:06:32.508Z,99411.78
2018-05-15T06:12:37.270Z,99398.76
2018-05-15T06:18:41.617Z,99405.47
2018-05-15T06:24:46.746Z,99397.20
2018-05-15T06:30:51.845Z,99400.59
2018-05-15T06:36:57.047Z,99394.64
2018-05-15T06:43:01.400Z,99400.80
2018-05-15T06:49:05.952Z,99397.22
2018-05-15T06:55:11.133Z,99393.38
2018-05-15T07:01:16.242Z,99400.33
2018-05-15T07:07:20.751Z,99401.63
2018-05-15T07:13:26.243Z,99405.12
2018-05-15T07:19:30.678Z,99396.88
2018-05-15T07:25:35.009Z,99402.84
2018-05-15T07:31:39.388Z,99407.95
2018-05-15T07:37:43.753Z,99402.40
2018-05-15T07:43:48.120Z,99393.07
2018-05-15T07:49:53.875Z,99393.42
2018-05-15T07:55:58.227Z,99399.47
2018-05-15T08:02:02.620Z,99387.54
2018-05-15T08:08:06.996Z,99391.80
2018-05-15T08:14:11.343Z,99394.80
2018-05-15T08:20:15.693Z,99403.12
2018-05-15T08:26:20.135Z,99404.36
2018-05-15T08:32:25.304Z,99403.41
2018-05-15T08:38:29.664Z,99405.03
2018-05-15T08:44:34.017Z,99397.36
2018-05-15T08:50:38.381Z,99398.69
2018-05-15T08:56:42.750Z,99399.87
2018-05-15T09:02:47.865Z,99404.95
2018-05-15T09:08:52.570Z,99401.69
2018-05-15T09:14:57.269Z,99402.03
2018-05-15T09:21:01.700Z,99400.34
2018-05-15T09:27:06.043Z,99394.77
2018-05-15T09:33:11.210Z,99402.18
2018-05-15T09:39:16.337Z,99394.45
2018-05-15T09:45:21.460Z,99398.42
2018-05-15T09:51:25.829Z,99385.48
2018-05-15T09:57:30.176Z,99393.13
2018-05-15T10:03:34.733Z,99393.69
2018-05-15T10:09:39.122Z,99389.44
2018-05-15T10:15:44.245Z,99377.09
2018-05-15T10:21:48.601Z,99381.17
2018-05-15T10:27:53.053Z,99373.45
2018-05-15T10:33:57.401Z,99388.38
2018-05-15T10:40:01.952Z,99378.09
2018-05-15T10:46:06.310Z,99380.19
2018-05-15T10:52:10.653Z,99372.56
2018-05-15T10:58:15.784Z,99360.37
2018-05-15T11:04:20.372Z,99347.88
2018-05-15T11:10:24.849Z,99349.31
2018-05-15T11:16:29.293Z,99346.77
2018-05-15T11:22:52.042Z,99345.22
2018-05-15T11:28:56.441Z,99347.21
2018-05-15T11:35:00.851Z,99341.70
2018-05-15T11:41:06.849Z,99331.98
2018-05-15T11:47:11.979Z,99324.69
2018-05-15T11:53:16.838Z,99324.21
2018-05-15T11:59:22.455Z,99320.68
2018-05-15T12:05:26.850Z,99319.63
2018-05-15T12:11:31.305Z,99313.77
2018-05-15T12:17:35.691Z,99287.83
2018-05-15T12:23:40.042Z,99280.64
2018-05-15T12:29:45.432Z,99283.94
2018-05-15T12:35:49.904Z,99287.05
2018-05-15T12:41:55.645Z,99272.19
2018-05-15T12:48:00.737Z,99259.41
2018-05-15T12:54:05.178Z,99260.38
2018-05-15T13:00:09.569Z,99256.72
2018-05-15T13:06:13.923Z,99254.93
2018-05-15T13:12:18.475Z,99247.75
2018-05-15T13:18:23.861Z,99225.72
2018-05-15T13:24:28.249Z,99221.50
2018-05-15T13:30:32.577Z,99223.28
2018-05-15T13:36:37.733Z,99221.14
2018-05-15T13:42:42.086Z,99224.68
2018-05-15T13:48:46.466Z,99216.63
2018-05-15T13:54:50.857Z,99212.72
2018-05-15T14:00:55.336Z,99214.30
2018-05-15T14:06:59.748Z,99193.25
2018-05-15T14:13:04.870Z,99188.11
2018-05-15T14:19:09.250Z,99185.22
2018-05-15T14:25:13.824Z,99181.25
2018-05-15T14:31:18.140Z,99180.56
2018-05-15T14:37:23.298Z,99183.67
2018-05-15T14:43:27.770Z,99174.97
2018-05-15T14:49:32.249Z,99173.17
2018-05-15T14:55:36.674Z,99167.88
2018-05-15T15:01:42.382Z,99170.70
2018-05-15T15:07:48.197Z,99162.95
2018-05-15T15:13:54.071Z,99165.94
2018-05-15T15:19:59.285Z,99159.52
2018-05-15T15:26:04.478Z,99154.16
2018-05-15T15:32:08.913Z,99147.14
2018-05-15T15:38:13.303Z,99143.27
2018-05-15T15:44:17.655Z,99131.70
2018-05-15T15:50:22.069Z,99142.67
2018-05-15T15:56:26.424Z,99164.19
2018-05-15T16:02:30.782Z,99131.81
2018-05-15T16:08:35.174Z,99125.88
2018-05-15T16:14:39.537Z,99113.34
2018-05-15T16:20:43.895Z,99119.11
2018-05-15T16:26:48.201Z,99118.64
2018-05-15T16:32:53.394Z,99114.78
2018-05-15T16:38:57.748Z,99110.22
2018-05-15T16:45:02.106Z,99098.95
2018-05-15T16:51:06.473Z,99095.34
2018-05-15T16:57:11.601Z,99092.86
2018-05-15T17:03:15.948Z,99102.95
2018-05-15T17:09:20.636Z,99096.47
2018-05-15T17:15:24.989Z,99085.43
2018-05-15T17:21:30.142Z,99092.19
2018-05-15T17:27:34.720Z,99096.44
2018-05-15T17:33:39.121Z,99101.45
2018-05-15T17:39:43.738Z,99110.66
2018-05-15T17:45:48.243Z,99129.92
2018-05-15T17:51:54.085Z,99154.93
2018-05-15T17:57:59.565Z,99166.59
2018-05-15T18:04:03.901Z,99160.70
2018-05-15T18:10:08.267Z,99171.16
2018-05-15T18:16:13.386Z,99198.27
2018-05-15T18:22:17.697Z,99187.33
2018-05-15T18:28:23.023Z,99205.79
2018-05-15T18:34:28.140Z,99223.87
2018-05-15T18:40:32.601Z,99224.44
2018-05-15T18:46:37.303Z,99227.55
2018-05-15T18:52:41.629Z,99235.23
2018-05-15T18:58:45.986Z,99242.17
2018-05-15T19:04:50.404Z,99250.19
2018-05-15T19:10:54.776Z,99243.30
2018-05-15T19:16:59.125Z,99265.72
2018-05-15T19:23:03.664Z,99259.19
2018-05-15T19:29:07.997Z,99258.16
2018-05-15T19:35:18.603Z,99256.44
2018-05-15T19:41:23.049Z,99265.60
2018-05-15T19:47:27.349Z,99282.17
2018-05-15T19:53:33.221Z,99276.59
2018-05-15T19:59:37.550Z,99271.59
2018-05-15T20:05:42.711Z,99271.38
2018-05-15T20:11:47.073Z,99272.36
2018-05-15T20:17:51.462Z,99269.11
2018-05-15T20:23:55.984Z,99274.65
2018-05-15T20:30:00.344Z,99281.50
2018-05-15T20:36:05.470Z,99284.25
2018-05-15T20:42:10.488Z,99280.44
2018-05-15T20:48:14.762Z,99274.14
2018-05-15T20:54:19.126Z,99289.20
2018-05-15T21:00:23.798Z,99288.24
2018-05-15T21:06:28.133Z,99292.81
2018-05-15T21:12:33.276Z,99297.46
2018-05-15T21:18:37.620Z,99292.53
2018-05-15T21:24:41.996Z,99287.65
2018-05-15T21:30:46.341Z,99282.05
2018-05-15T21:36:50.865Z,99275.29
2018-05-15T21:42:55.290Z,99270.78
2018-05-15T21:48:59.649Z,99278.48
2018-05-15T21:55:04.004Z,99273.44
2018-05-15T22:01:08.372Z,99265.50
2018-05-15T22:07:12.735Z,99265.58
2018-05-15T22:13:35.029Z,99243.35
2018-05-15T22:20:03.243Z,99242.09
2018-05-15T22:26:13.590Z,99242.42
2018-05-15T22:32:17.946Z,99241.69
2018-05-15T22:38:22.849Z,99232.23
2018-05-15T22:44:27.211Z,99231.39
2018-05-15T22:50:32.014Z,99217.90
2018-05-15T22:56:36.387Z,99213.55
2018-05-15T23:02:40.734Z,99216.81
2018-05-15T23:08:45.080Z,99214.34
2018-05-15T23:14:49.564Z,99219.06
2018-05-15T23:20:54.394Z,99214.03
2018-05-15T23:26:59.588Z,99211.36
2018-05-15T23:33:03.950Z,99202.36
2018-05-15T23:39:08.316Z,99210.47
2018-05-15T23:45:12.668Z,99211.17
2018-05-15T23:51:17.041Z,99208.61
2018-05-15T23:57:22.203Z,99211.21
